sensor_id;sensor_type;location;lat;lon;timestamp;P1;durP1;ratioP1;P2;durP2;ratioP2
8871;SDS011;4472;52.092;9.820;2023-12-20T00:01:10;4.77;;;4.37;;
8871;SDS011;4472;52.092;9.820;2023-12-20T00:03:57;4.50;;;4.10;;
8871;SDS011;4472;52.092;9.820;2023-12-20T00:06:44;3.90;;;3.60;;
8871;SDS011;4472;52.092;9.820;2023-12-20T00:09:32;5.13;;;4.17;;
8871;SDS011;4472;52.092;9.820;2023-12-20T00:12:19;4.60;;;4.20;;
8871;SDS011;4472;52.092;9.820;2023-12-20T00:15:06;4.53;;;4.13;;
8871;SDS011;4472;52.092;9.820;2023-12-20T00:17:55;4.60;;;4.20;;
8871;SDS011;4472;52.092;9.820;2023-12-20T00:20:42;4.43;;;4.03;;
8871;SDS011;4472;52.092;9.820;2023-12-20T00:23:30;5.50;;;4.20;;
8871;SDS011;4472;52.092;9.820;2023-12-20T00:26:17;5.13;;;4.50;;
8871;SDS011;4472;52.092;9.820;2023-12-20T00:29:04;4.57;;;4.17;;
8871;SDS011;4472;52.092;9.820;2023-12-20T00:31:51;5.20;;;4.70;;
8871;SDS011;4472;52.092;9.820;2023-12-20T00:34:40;5.13;;;4.63;;
8871;SDS011;4472;52.092;9.820;2023-12-20T00:37:27;5.80;;;5.17;;
8871;SDS011;4472;52.092;9.820;2023-12-20T00:40:14;6.40;;;5.17;;
8871;SDS011;4472;52.092;9.820;2023-12-20T00:43:01;6.27;;;5.23;;
8871;SDS011;4472;52.092;9.820;2023-12-20T00:45:49;6.87;;;6.10;;
8871;SDS011;4472;52.092;9.820;2023-12-20T00:48:36;7.70;;;6.53;;
8871;SDS011;4472;52.092;9.820;2023-12-20T00:51:24;10.93;;;8.03;;
8871;SDS011;4472;52.092;9.820;2023-12-20T00:54:11;9.47;;;7.80;;
8871;SDS011;4472;52.092;9.820;2023-12-20T00:56:59;11.73;;;9.30;;
8871;SDS011;4472;52.092;9.820;2023-12-20T00:59:46;12.43;;;9.13;;
8871;SDS011;4472;52.092;9.820;2023-12-20T01:02:33;14.30;;;9.90;;
8871;SDS011;4472;52.092;9.820;2023-12-20T01:05:20;11.60;;;5.60;;
8871;SDS011;4472;52.092;9.820;2023-12-20T01:08:22;7.87;;;3.80;;
8871;SDS011;4472;52.092;9.820;2023-12-20T01:11:09;7.67;;;3.47;;
8871;SDS011;4472;52.092;9.820;2023-12-20T01:13:56;11.37;;;3.70;;
8871;SDS011;4472;52.092;9.820;2023-12-20T01:16:44;13.50;;;4.43;;
8871;SDS011;4472;52.092;9.820;2023-12-20T01:19:31;12.20;;;3.93;;
8871;SDS011;4472;52.092;9.820;2023-12-20T01:22:18;12.30;;;4.67;;
8871;SDS011;4472;52.092;9.820;2023-12-20T01:25:07;12.63;;;5.10;;
8871;SDS011;4472;52.092;9.820;2023-12-20T01:27:54;9.43;;;4.87;;
8871;SDS011;4472;52.092;9.820;2023-12-20T01:30:41;16.63;;;5.43;;
8871;SDS011;4472;52.092;9.820;2023-12-20T01:33:29;14.27;;;5.00;;
8871;SDS011;4472;52.092;9.820;2023-12-20T01:36:16;13.07;;;5.40;;
8871;SDS011;4472;52.092;9.820;2023-12-20T01:39:03;9.47;;;4.40;;
8871;SDS011;4472;52.092;9.820;2023-12-20T01:41:52;9.80;;;5.27;;
8871;SDS011;4472;52.092;9.820;2023-12-20T01:44:39;9.50;;;4.73;;
8871;SDS011;4472;52.092;9.820;2023-12-20T01:47:29;11.27;;;5.20;;
8871;SDS011;4472;52.092;9.820;2023-12-20T01:50:17;11.83;;;5.83;;
8871;SDS011;4472;52.092;9.820;2023-12-20T01:53:04;10.67;;;5.40;;
8871;SDS011;4472;52.092;9.820;2023-12-20T01:55:54;5.93;;;4.57;;
8871;SDS011;4472;52.092;9.820;2023-12-20T01:58:44;12.13;;;4.00;;
8871;SDS011;4472;52.092;9.820;2023-12-20T02:01:32;9.00;;;3.47;;
8871;SDS011;4472;52.092;9.820;2023-12-20T02:04:20;6.93;;;3.40;;
8871;SDS011;4472;52.092;9.820;2023-12-20T02:07:07;7.33;;;3.23;;
8871;SDS011;4472;52.092;9.820;2023-12-20T02:09:56;9.30;;;3.77;;
8871;SDS011;4472;52.092;9.820;2023-12-20T02:12:43;14.13;;;4.00;;
8871;SDS011;4472;52.092;9.820;2023-12-20T02:15:32;8.30;;;3.27;;
8871;SDS011;4472;52.092;9.820;2023-12-20T02:18:19;9.10;;;3.53;;
8871;SDS011;4472;52.092;9.820;2023-12-20T02:21:06;12.67;;;3.47;;
8871;SDS011;4472;52.092;9.820;2023-12-20T02:23:55;8.47;;;3.60;;
8871;SDS011;4472;52.092;9.820;2023-12-20T02:26:42;12.63;;;3.77;;
8871;SDS011;4472;52.092;9.820;2023-12-20T02:29:29;10.20;;;3.50;;
8871;SDS011;4472;52.092;9.820;2023-12-20T02:32:17;8.13;;;3.73;;
8871;SDS011;4472;52.092;9.820;2023-12-20T02:35:05;6.97;;;3.37;;
8871;SDS011;4472;52.092;9.820;2023-12-20T02:37:53;10.83;;;3.30;;
8871;SDS011;4472;52.092;9.820;2023-12-20T02:40:41;6.87;;;3.17;;
8871;SDS011;4472;52.092;9.820;2023-12-20T02:43:29;7.40;;;2.97;;
8871;SDS011;4472;52.092;9.820;2023-12-20T02:46:16;8.23;;;2.93;;
8871;SDS011;4472;52.092;9.820;2023-12-20T02:49:05;9.90;;;3.40;;
8871;SDS011;4472;52.092;9.820;2023-12-20T02:51:52;8.70;;;3.00;;
8871;SDS011;4472;52.092;9.820;2023-12-20T02:54:39;10.37;;;2.90;;
8871;SDS011;4472;52.092;9.820;2023-12-20T02:57:28;11.17;;;3.57;;
8871;SDS011;4472;52.092;9.820;2023-12-20T03:00:15;7.47;;;3.13;;
8871;SDS011;4472;52.092;9.820;2023-12-20T03:03:03;12.30;;;2.70;;
8871;SDS011;4472;52.092;9.820;2023-12-20T03:05:51;8.73;;;2.67;;
8871;SDS011;4472;52.092;9.820;2023-12-20T03:08:38;9.13;;;2.33;;
8871;SDS011;4472;52.092;9.820;2023-12-20T03:11:26;6.03;;;2.50;;
8871;SDS011;4472;52.092;9.820;2023-12-20T03:14:15;13.10;;;2.87;;
8871;SDS011;4472;52.092;9.820;2023-12-20T03:17:02;9.10;;;2.40;;
8871;SDS011;4472;52.092;9.820;2023-12-20T03:19:49;8.13;;;2.67;;
8871;SDS011;4472;52.092;9.820;2023-12-20T03:22:36;9.70;;;2.70;;
8871;SDS011;4472;52.092;9.820;2023-12-20T03:25:24;7.07;;;2.50;;
8871;SDS011;4472;52.092;9.820;2023-12-20T03:28:11;6.33;;;2.30;;
8871;SDS011;4472;52.092;9.820;2023-12-20T03:31:02;6.73;;;2.10;;
8871;SDS011;4472;52.092;9.820;2023-12-20T03:33:49;3.93;;;2.13;;
8871;SDS011;4472;52.092;9.820;2023-12-20T03:36:40;12.03;;;2.53;;
8871;SDS011;4472;52.092;9.820;2023-12-20T03:39:27;8.37;;;2.93;;
8871;SDS011;4472;52.092;9.820;2023-12-20T03:42:14;9.20;;;2.00;;
8871;SDS011;4472;52.092;9.820;2023-12-20T03:45:01;8.13;;;1.73;;
8871;SDS011;4472;52.092;9.820;2023-12-20T03:47:50;9.53;;;2.07;;
8871;SDS011;4472;52.092;9.820;2023-12-20T03:50:40;5.47;;;2.00;;
8871;SDS011;4472;52.092;9.820;2023-12-20T03:53:27;6.37;;;1.87;;
8871;SDS011;4472;52.092;9.820;2023-12-20T03:56:14;7.33;;;2.57;;
8871;SDS011;4472;52.092;9.820;2023-12-20T03:59:01;8.83;;;2.27;;
8871;SDS011;4472;52.092;9.820;2023-12-20T04:01:50;6.83;;;2.03;;
8871;SDS011;4472;52.092;9.820;2023-12-20T04:04:38;6.90;;;1.80;;
8871;SDS011;4472;52.092;9.820;2023-12-20T04:07:25;8.87;;;2.07;;
8871;SDS011;4472;52.092;9.820;2023-12-20T04:10:13;4.80;;;1.80;;
8871;SDS011;4472;52.092;9.820;2023-12-20T04:13:00;5.97;;;1.73;;
8871;SDS011;4472;52.092;9.820;2023-12-20T04:15:47;8.10;;;2.30;;
8871;SDS011;4472;52.092;9.820;2023-12-20T04:18:36;8.47;;;2.53;;
8871;SDS011;4472;52.092;9.820;2023-12-20T04:21:24;7.00;;;1.87;;
8871;SDS011;4472;52.092;9.820;2023-12-20T04:24:12;8.13;;;2.50;;
8871;SDS011;4472;52.092;9.820;2023-12-20T04:26:59;7.13;;;2.10;;
8871;SDS011;4472;52.092;9.820;2023-12-20T04:29:46;8.20;;;2.17;;
8871;SDS011;4472;52.092;9.820;2023-12-20T04:32:33;10.50;;;2.50;;
8871;SDS011;4472;52.092;9.820;2023-12-20T04:35:20;7.70;;;2.73;;
8871;SDS011;4472;52.092;9.820;2023-12-20T04:38:09;5.73;;;2.50;;
8871;SDS011;4472;52.092;9.820;2023-12-20T04:40:56;6.43;;;2.83;;
8871;SDS011;4472;52.092;9.820;2023-12-20T04:43:43;7.77;;;2.50;;
8871;SDS011;4472;52.092;9.820;2023-12-20T04:46:30;8.53;;;2.70;;
8871;SDS011;4472;52.092;9.820;2023-12-20T04:49:18;10.33;;;2.90;;
8871;SDS011;4472;52.092;9.820;2023-12-20T04:52:05;12.57;;;3.80;;
8871;SDS011;4472;52.092;9.820;2023-12-20T04:54:53;12.37;;;3.03;;
8871;SDS011;4472;52.092;9.820;2023-12-20T04:57:41;6.20;;;2.70;;
8871;SDS011;4472;52.092;9.820;2023-12-20T05:00:28;7.97;;;2.97;;
8871;SDS011;4472;52.092;9.820;2023-12-20T05:03:15;8.97;;;3.03;;
8871;SDS011;4472;52.092;9.820;2023-12-20T05:06:03;9.83;;;3.07;;
8871;SDS011;4472;52.092;9.820;2023-12-20T05:08:50;6.63;;;3.07;;
8871;SDS011;4472;52.092;9.820;2023-12-20T05:11:38;11.13;;;3.10;;
8871;SDS011;4472;52.092;9.820;2023-12-20T05:14:26;10.43;;;3.30;;
8871;SDS011;4472;52.092;9.820;2023-12-20T05:19:43;8.80;;;2.90;;
8871;SDS011;4472;52.092;9.820;2023-12-20T05:22:30;14.33;;;2.97;;
8871;SDS011;4472;52.092;9.820;2023-12-20T05:25:17;13.70;;;3.00;;
8871;SDS011;4472;52.092;9.820;2023-12-20T05:28:06;11.73;;;3.40;;
8871;SDS011;4472;52.092;9.820;2023-12-20T05:30:53;12.57;;;3.57;;
8871;SDS011;4472;52.092;9.820;2023-12-20T05:33:41;12.57;;;4.17;;
8871;SDS011;4472;52.092;9.820;2023-12-20T05:36:28;16.43;;;3.40;;
8871;SDS011;4472;52.092;9.820;2023-12-20T05:39:15;10.23;;;2.90;;
8871;SDS011;4472;52.092;9.820;2023-12-20T05:42:03;7.87;;;3.33;;
8871;SDS011;4472;52.092;9.820;2023-12-20T05:44:52;12.50;;;3.50;;
8871;SDS011;4472;52.092;9.820;2023-12-20T05:47:39;15.43;;;4.20;;
8871;SDS011;4472;52.092;9.820;2023-12-20T05:50:27;13.33;;;3.50;;
8871;SDS011;4472;52.092;9.820;2023-12-20T05:53:14;12.00;;;3.90;;
8871;SDS011;4472;52.092;9.820;2023-12-20T05:56:02;15.13;;;3.63;;
8871;SDS011;4472;52.092;9.820;2023-12-20T05:58:50;15.93;;;3.93;;
8871;SDS011;4472;52.092;9.820;2023-12-20T06:01:38;11.63;;;4.17;;
8871;SDS011;4472;52.092;9.820;2023-12-20T06:04:26;12.43;;;4.23;;
8871;SDS011;4472;52.092;9.820;2023-12-20T06:07:13;18.70;;;4.10;;
8871;SDS011;4472;52.092;9.820;2023-12-20T06:10:02;15.47;;;3.93;;
8871;SDS011;4472;52.092;9.820;2023-12-20T06:12:49;14.73;;;4.30;;
8871;SDS011;4472;52.092;9.820;2023-12-20T06:15:36;16.23;;;4.43;;
8871;SDS011;4472;52.092;9.820;2023-12-20T06:18:25;14.03;;;4.07;;
8871;SDS011;4472;52.092;9.820;2023-12-20T06:21:12;15.43;;;3.50;;
8871;SDS011;4472;52.092;9.820;2023-12-20T06:24:00;14.93;;;4.27;;
8871;SDS011;4472;52.092;9.820;2023-12-20T06:26:47;15.70;;;4.33;;
8871;SDS011;4472;52.092;9.820;2023-12-20T06:29:35;14.37;;;3.50;;
8871;SDS011;4472;52.092;9.820;2023-12-20T06:32:22;11.17;;;3.70;;
8871;SDS011;4472;52.092;9.820;2023-12-20T06:35:11;10.60;;;3.57;;
8871;SDS011;4472;52.092;9.820;2023-12-20T06:37:59;19.70;;;4.10;;
8871;SDS011;4472;52.092;9.820;2023-12-20T06:40:46;17.37;;;4.63;;
8871;SDS011;4472;52.092;9.820;2023-12-20T06:43:34;15.27;;;4.67;;
8871;SDS011;4472;52.092;9.820;2023-12-20T06:46:21;17.97;;;5.00;;
8871;SDS011;4472;52.092;9.820;2023-12-20T06:49:08;15.50;;;4.80;;
8871;SDS011;4472;52.092;9.820;2023-12-20T06:51:57;14.20;;;4.03;;
8871;SDS011;4472;52.092;9.820;2023-12-20T06:54:44;14.17;;;3.73;;
8871;SDS011;4472;52.092;9.820;2023-12-20T06:57:32;12.63;;;3.57;;
8871;SDS011;4472;52.092;9.820;2023-12-20T07:00:20;10.80;;;3.57;;
8871;SDS011;4472;52.092;9.820;2023-12-20T07:03:08;10.93;;;3.50;;
8871;SDS011;4472;52.092;9.820;2023-12-20T07:05:56;12.77;;;3.93;;
8871;SDS011;4472;52.092;9.820;2023-12-20T07:08:44;8.20;;;3.07;;
8871;SDS011;4472;52.092;9.820;2023-12-20T07:11:32;9.27;;;3.67;;
8871;SDS011;4472;52.092;9.820;2023-12-20T07:14:21;7.53;;;2.90;;
8871;SDS011;4472;52.092;9.820;2023-12-20T07:17:10;9.17;;;3.57;;
8871;SDS011;4472;52.092;9.820;2023-12-20T07:19:59;14.03;;;3.33;;
8871;SDS011;4472;52.092;9.820;2023-12-20T07:22:49;14.70;;;3.50;;
8871;SDS011;4472;52.092;9.820;2023-12-20T07:25:37;9.33;;;3.90;;
8871;SDS011;4472;52.092;9.820;2023-12-20T07:28:24;13.97;;;3.10;;
8871;SDS011;4472;52.092;9.820;2023-12-20T07:31:11;13.30;;;3.83;;
8871;SDS011;4472;52.092;9.820;2023-12-20T07:33:58;14.13;;;3.77;;
8871;SDS011;4472;52.092;9.820;2023-12-20T07:36:45;14.47;;;4.20;;
8871;SDS011;4472;52.092;9.820;2023-12-20T07:39:33;13.03;;;3.97;;
8871;SDS011;4472;52.092;9.820;2023-12-20T07:42:21;15.40;;;4.10;;
8871;SDS011;4472;52.092;9.820;2023-12-20T07:45:08;12.83;;;3.77;;
8871;SDS011;4472;52.092;9.820;2023-12-20T07:47:57;9.43;;;3.73;;
8871;SDS011;4472;52.092;9.820;2023-12-20T07:50:44;11.87;;;3.40;;
8871;SDS011;4472;52.092;9.820;2023-12-20T07:53:31;14.43;;;3.67;;
8871;SDS011;4472;52.092;9.820;2023-12-20T07:56:19;13.57;;;3.60;;
8871;SDS011;4472;52.092;9.820;2023-12-20T07:59:07;16.27;;;4.10;;
8871;SDS011;4472;52.092;9.820;2023-12-20T08:01:55;13.27;;;3.83;;
8871;SDS011;4472;52.092;9.820;2023-12-20T08:04:42;17.57;;;4.30;;
8871;SDS011;4472;52.092;9.820;2023-12-20T08:07:29;11.37;;;3.90;;
8871;SDS011;4472;52.092;9.820;2023-12-20T08:10:16;12.87;;;3.73;;
8871;SDS011;4472;52.092;9.820;2023-12-20T08:13:04;11.57;;;3.60;;
8871;SDS011;4472;52.092;9.820;2023-12-20T08:15:53;15.63;;;4.10;;
8871;SDS011;4472;52.092;9.820;2023-12-20T08:18:41;13.90;;;3.77;;
8871;SDS011;4472;52.092;9.820;2023-12-20T08:21:28;16.07;;;4.03;;
8871;SDS011;4472;52.092;9.820;2023-12-20T08:24:15;13.63;;;3.90;;
8871;SDS011;4472;52.092;9.820;2023-12-20T08:27:03;14.20;;;4.00;;
8871;SDS011;4472;52.092;9.820;2023-12-20T08:29:50;15.60;;;4.07;;
8871;SDS011;4472;52.092;9.820;2023-12-20T08:32:38;13.07;;;3.90;;
8871;SDS011;4472;52.092;9.820;2023-12-20T08:35:26;11.57;;;3.40;;
8871;SDS011;4472;52.092;9.820;2023-12-20T08:38:13;12.77;;;3.67;;
8871;SDS011;4472;52.092;9.820;2023-12-20T08:41:00;14.67;;;3.80;;
8871;SDS011;4472;52.092;9.820;2023-12-20T08:43:48;10.83;;;3.33;;
8871;SDS011;4472;52.092;9.820;2023-12-20T08:46:36;11.90;;;3.30;;
8871;SDS011;4472;52.092;9.820;2023-12-20T08:49:24;12.03;;;3.60;;
8871;SDS011;4472;52.092;9.820;2023-12-20T08:52:12;13.37;;;3.63;;
8871;SDS011;4472;52.092;9.820;2023-12-20T08:54:59;13.00;;;4.03;;
8871;SDS011;4472;52.092;9.820;2023-12-20T08:57:46;16.03;;;3.43;;
8871;SDS011;4472;52.092;9.820;2023-12-20T09:00:33;7.30;;;3.13;;
8871;SDS011;4472;52.092;9.820;2023-12-20T09:03:20;10.20;;;3.60;;
8871;SDS011;4472;52.092;9.820;2023-12-20T09:06:09;13.20;;;4.00;;
8871;SDS011;4472;52.092;9.820;2023-12-20T09:08:56;13.43;;;3.77;;
8871;SDS011;4472;52.092;9.820;2023-12-20T09:11:43;40.50;;;18.87;;
8871;SDS011;4472;52.092;9.820;2023-12-20T09:14:31;14.33;;;5.80;;
8871;SDS011;4472;52.092;9.820;2023-12-20T09:17:18;17.40;;;4.33;;
8871;SDS011;4472;52.092;9.820;2023-12-20T09:20:06;9.87;;;3.63;;
8871;SDS011;4472;52.092;9.820;2023-12-20T09:22:55;10.97;;;3.47;;
8871;SDS011;4472;52.092;9.820;2023-12-20T09:25:43;18.20;;;4.10;;
8871;SDS011;4472;52.092;9.820;2023-12-20T09:28:30;14.77;;;4.30;;
8871;SDS011;4472;52.092;9.820;2023-12-20T09:31:22;12.40;;;4.30;;
8871;SDS011;4472;52.092;9.820;2023-12-20T09:34:09;14.00;;;4.43;;
8871;SDS011;4472;52.092;9.820;2023-12-20T09:36:56;11.20;;;4.60;;
8871;SDS011;4472;52.092;9.820;2023-12-20T09:39:45;13.97;;;4.07;;
8871;SDS011;4472;52.092;9.820;2023-12-20T09:42:33;12.43;;;3.90;;
8871;SDS011;4472;52.092;9.820;2023-12-20T09:45:26;9.47;;;3.53;;
8871;SDS011;4472;52.092;9.820;2023-12-20T09:48:13;11.97;;;3.97;;
8871;SDS011;4472;52.092;9.820;2023-12-20T09:51:04;13.10;;;4.23;;
8871;SDS011;4472;52.092;9.820;2023-12-20T09:53:51;12.93;;;4.53;;
8871;SDS011;4472;52.092;9.820;2023-12-20T09:56:43;11.03;;;3.20;;
8871;SDS011;4472;52.092;9.820;2023-12-20T09:59:31;11.57;;;4.10;;
8871;SDS011;4472;52.092;9.820;2023-12-20T10:02:18;12.37;;;4.27;;
8871;SDS011;4472;52.092;9.820;2023-12-20T10:05:10;10.57;;;3.70;;
8871;SDS011;4472;52.092;9.820;2023-12-20T10:08:04;10.30;;;3.90;;
8871;SDS011;4472;52.092;9.820;2023-12-20T10:10:52;10.50;;;3.57;;
8871;SDS011;4472;52.092;9.820;2023-12-20T10:13:42;9.27;;;3.47;;
8871;SDS011;4472;52.092;9.820;2023-12-20T10:16:35;9.17;;;3.73;;
8871;SDS011;4472;52.092;9.820;2023-12-20T10:19:22;12.87;;;4.17;;
8871;SDS011;4472;52.092;9.820;2023-12-20T10:22:09;12.30;;;3.93;;
8871;SDS011;4472;52.092;9.820;2023-12-20T10:24:57;13.90;;;4.03;;
8871;SDS011;4472;52.092;9.820;2023-12-20T10:27:44;10.43;;;4.43;;
8871;SDS011;4472;52.092;9.820;2023-12-20T10:30:33;9.70;;;4.07;;
8871;SDS011;4472;52.092;9.820;2023-12-20T10:33:23;14.63;;;4.60;;
8871;SDS011;4472;52.092;9.820;2023-12-20T10:36:11;10.90;;;4.67;;
8871;SDS011;4472;52.092;9.820;2023-12-20T10:38:59;15.27;;;4.73;;
8871;SDS011;4472;52.092;9.820;2023-12-20T10:41:49;7.80;;;4.47;;
8871;SDS011;4472;52.092;9.820;2023-12-20T10:44:37;11.70;;;4.80;;
8871;SDS011;4472;52.092;9.820;2023-12-20T10:47:26;14.50;;;4.70;;
8871;SDS011;4472;52.092;9.820;2023-12-20T10:50:16;14.37;;;4.47;;
8871;SDS011;4472;52.092;9.820;2023-12-20T10:53:05;15.07;;;5.00;;
8871;SDS011;4472;52.092;9.820;2023-12-20T10:55:55;14.07;;;4.73;;
8871;SDS011;4472;52.092;9.820;2023-12-20T10:58:43;13.03;;;4.53;;
8871;SDS011;4472;52.092;9.820;2023-12-20T11:01:31;13.77;;;4.70;;
8871;SDS011;4472;52.092;9.820;2023-12-20T11:04:22;10.47;;;4.87;;
8871;SDS011;4472;52.092;9.820;2023-12-20T11:07:29;17.80;;;5.30;;
8871;SDS011;4472;52.092;9.820;2023-12-20T11:10:24;15.10;;;5.10;;
8871;SDS011;4472;52.092;9.820;2023-12-20T11:13:17;17.20;;;5.53;;
8871;SDS011;4472;52.092;9.820;2023-12-20T11:16:09;11.23;;;4.50;;
8871;SDS011;4472;52.092;9.820;2023-12-20T11:18:56;11.60;;;4.20;;
8871;SDS011;4472;52.092;9.820;2023-12-20T11:21:45;14.50;;;5.27;;
8871;SDS011;4472;52.092;9.820;2023-12-20T11:24:33;13.90;;;4.73;;
8871;SDS011;4472;52.092;9.820;2023-12-20T11:27:23;10.80;;;4.63;;
8871;SDS011;4472;52.092;9.820;2023-12-20T11:30:11;7.53;;;4.87;;
8871;SDS011;4472;52.092;9.820;2023-12-20T11:33:00;12.30;;;4.90;;
8871;SDS011;4472;52.092;9.820;2023-12-20T11:35:47;15.80;;;5.33;;
8871;SDS011;4472;52.092;9.820;2023-12-20T11:38:39;10.47;;;5.03;;
8871;SDS011;4472;52.092;9.820;2023-12-20T11:41:41;15.80;;;6.13;;
8871;SDS011;4472;52.092;9.820;2023-12-20T11:44:31;14.90;;;5.50;;
8871;SDS011;4472;52.092;9.820;2023-12-20T11:47:20;11.13;;;6.57;;
8871;SDS011;4472;52.092;9.820;2023-12-20T11:50:07;12.20;;;4.40;;
8871;SDS011;4472;52.092;9.820;2023-12-20T11:52:55;11.80;;;3.63;;
8871;SDS011;4472;52.092;9.820;2023-12-20T11:55:44;10.83;;;4.60;;
8871;SDS011;4472;52.092;9.820;2023-12-20T11:58:34;10.27;;;4.33;;
8871;SDS011;4472;52.092;9.820;2023-12-20T12:01:24;9.80;;;4.20;;
8871;SDS011;4472;52.092;9.820;2023-12-20T12:04:11;9.17;;;3.47;;
8871;SDS011;4472;52.092;9.820;2023-12-20T12:06:58;10.93;;;3.10;;
8871;SDS011;4472;52.092;9.820;2023-12-20T12:09:45;10.37;;;3.43;;
8871;SDS011;4472;52.092;9.820;2023-12-20T12:12:35;9.03;;;3.30;;
8871;SDS011;4472;52.092;9.820;2023-12-20T12:15:22;9.60;;;4.57;;
8871;SDS011;4472;52.092;9.820;2023-12-20T12:18:09;8.40;;;2.90;;
8871;SDS011;4472;52.092;9.820;2023-12-20T12:20:59;11.60;;;2.90;;
8871;SDS011;4472;52.092;9.820;2023-12-20T12:23:48;8.77;;;3.07;;
8871;SDS011;4472;52.092;9.820;2023-12-20T12:26:35;6.20;;;2.57;;
8871;SDS011;4472;52.092;9.820;2023-12-20T12:29:23;10.23;;;3.03;;
8871;SDS011;4472;52.092;9.820;2023-12-20T12:32:11;9.20;;;3.23;;
8871;SDS011;4472;52.092;9.820;2023-12-20T12:34:58;9.97;;;3.83;;
8871;SDS011;4472;52.092;9.820;2023-12-20T12:37:45;9.33;;;3.17;;
8871;SDS011;4472;52.092;9.820;2023-12-20T12:40:34;9.07;;;3.37;;
8871;SDS011;4472;52.092;9.820;2023-12-20T12:43:22;4.90;;;2.03;;
8871;SDS011;4472;52.092;9.820;2023-12-20T12:46:10;2.23;;;1.20;;
8871;SDS011;4472;52.092;9.820;2023-12-20T12:48:58;4.33;;;1.40;;
8871;SDS011;4472;52.092;9.820;2023-12-20T12:51:45;2.53;;;1.20;;
8871;SDS011;4472;52.092;9.820;2023-12-20T12:54:33;3.67;;;1.07;;
8871;SDS011;4472;52.092;9.820;2023-12-20T12:57:23;2.23;;;1.00;;
8871;SDS011;4472;52.092;9.820;2023-12-20T13:00:12;5.97;;;2.10;;
8871;SDS011;4472;52.092;9.820;2023-12-20T13:03:01;2.83;;;1.93;;
8871;SDS011;4472;52.092;9.820;2023-12-20T13:05:49;3.27;;;1.77;;
8871;SDS011;4472;52.092;9.820;2023-12-20T13:08:36;2.47;;;1.30;;
8871;SDS011;4472;52.092;9.820;2023-12-20T13:11:23;2.27;;;1.17;;
8871;SDS011;4472;52.092;9.820;2023-12-20T13:14:11;2.93;;;1.33;;
8871;SDS011;4472;52.092;9.820;2023-12-20T13:17:00;4.13;;;1.30;;
8871;SDS011;4472;52.092;9.820;2023-12-20T13:19:51;1.53;;;1.07;;
8871;SDS011;4472;52.092;9.820;2023-12-20T13:22:38;2.00;;;1.10;;
8871;SDS011;4472;52.092;9.820;2023-12-20T13:25:25;2.60;;;1.00;;
8871;SDS011;4472;52.092;9.820;2023-12-20T13:28:13;2.00;;;1.10;;
8871;SDS011;4472;52.092;9.820;2023-12-20T13:31:00;1.70;;;1.40;;
8871;SDS011;4472;52.092;9.820;2023-12-20T13:33:48;1.20;;;1.10;;
8871;SDS011;4472;52.092;9.820;2023-12-20T13:36:38;3.50;;;2.03;;
8871;SDS011;4472;52.092;9.820;2023-12-20T13:39:25;3.27;;;1.87;;
8871;SDS011;4472;52.092;9.820;2023-12-20T13:42:12;4.43;;;1.67;;
8871;SDS011;4472;52.092;9.820;2023-12-20T13:44:59;2.83;;;2.20;;
8871;SDS011;4472;52.092;9.820;2023-12-20T13:47:47;3.13;;;2.10;;
8871;SDS011;4472;52.092;9.820;2023-12-20T13:50:35;7.80;;;3.90;;
8871;SDS011;4472;52.092;9.820;2023-12-20T13:53:23;11.93;;;4.90;;
8871;SDS011;4472;52.092;9.820;2023-12-20T13:56:10;5.53;;;2.10;;
8871;SDS011;4472;52.092;9.820;2023-12-20T13:58:58;6.93;;;1.73;;
8871;SDS011;4472;52.092;9.820;2023-12-20T14:01:45;4.07;;;1.90;;
8871;SDS011;4472;52.092;9.820;2023-12-20T14:04:32;8.47;;;2.20;;
8871;SDS011;4472;52.092;9.820;2023-12-20T14:07:19;5.20;;;1.93;;
8871;SDS011;4472;52.092;9.820;2023-12-20T14:10:09;5.33;;;1.87;;
8871;SDS011;4472;52.092;9.820;2023-12-20T14:12:57;5.00;;;2.60;;
8871;SDS011;4472;52.092;9.820;2023-12-20T14:15:44;8.23;;;3.23;;
8871;SDS011;4472;52.092;9.820;2023-12-20T14:18:32;3.87;;;2.10;;
8871;SDS011;4472;52.092;9.820;2023-12-20T14:21:19;6.43;;;2.13;;
8871;SDS011;4472;52.092;9.820;2023-12-20T14:24:07;6.13;;;2.20;;
8871;SDS011;4472;52.092;9.820;2023-12-20T14:26:56;8.27;;;2.10;;
8871;SDS011;4472;52.092;9.820;2023-12-20T14:29:44;6.47;;;2.10;;
8871;SDS011;4472;52.092;9.820;2023-12-20T14:32:31;10.13;;;2.13;;
8871;SDS011;4472;52.092;9.820;2023-12-20T14:35:22;5.10;;;2.10;;
8871;SDS011;4472;52.092;9.820;2023-12-20T14:38:09;6.87;;;2.33;;
8871;SDS011;4472;52.092;9.820;2023-12-20T14:40:58;8.47;;;2.23;;
8871;SDS011;4472;52.092;9.820;2023-12-20T14:43:47;7.97;;;2.10;;
8871;SDS011;4472;52.092;9.820;2023-12-20T14:46:35;5.80;;;1.80;;
8871;SDS011;4472;52.092;9.820;2023-12-20T14:49:23;6.73;;;2.27;;
8871;SDS011;4472;52.092;9.820;2023-12-20T14:52:10;8.13;;;2.00;;
8871;SDS011;4472;52.092;9.820;2023-12-20T14:54:58;9.07;;;2.07;;
8871;SDS011;4472;52.092;9.820;2023-12-20T14:57:46;5.77;;;1.90;;
8871;SDS011;4472;52.092;9.820;2023-12-20T15:00:36;6.83;;;2.97;;
8871;SDS011;4472;52.092;9.820;2023-12-20T15:03:24;7.30;;;2.90;;
8871;SDS011;4472;52.092;9.820;2023-12-20T15:06:11;7.40;;;2.13;;
8871;SDS011;4472;52.092;9.820;2023-12-20T15:08:58;6.83;;;2.50;;
8871;SDS011;4472;52.092;9.820;2023-12-20T15:11:47;5.73;;;2.10;;
8871;SDS011;4472;52.092;9.820;2023-12-20T15:14:34;6.50;;;1.77;;
8871;SDS011;4472;52.092;9.820;2023-12-20T15:17:23;9.67;;;3.00;;
8871;SDS011;4472;52.092;9.820;2023-12-20T15:20:11;5.57;;;2.40;;
8871;SDS011;4472;52.092;9.820;2023-12-20T15:22:59;8.67;;;2.37;;
8871;SDS011;4472;52.092;9.820;2023-12-20T15:25:52;6.57;;;2.17;;
8871;SDS011;4472;52.092;9.820;2023-12-20T15:28:39;7.97;;;1.90;;
8871;SDS011;4472;52.092;9.820;2023-12-20T15:31:26;8.33;;;3.50;;
8871;SDS011;4472;52.092;9.820;2023-12-20T15:34:15;6.23;;;2.13;;
8871;SDS011;4472;52.092;9.820;2023-12-20T15:37:03;6.03;;;2.30;;
8871;SDS011;4472;52.092;9.820;2023-12-20T15:39:50;7.80;;;2.17;;
8871;SDS011;4472;52.092;9.820;2023-12-20T15:42:38;6.93;;;2.30;;
8871;SDS011;4472;52.092;9.820;2023-12-20T15:45:25;8.67;;;2.50;;
8871;SDS011;4472;52.092;9.820;2023-12-20T15:48:13;7.57;;;2.37;;
8871;SDS011;4472;52.092;9.820;2023-12-20T15:51:05;7.50;;;2.30;;
8871;SDS011;4472;52.092;9.820;2023-12-20T15:53:53;5.60;;;2.30;;
8871;SDS011;4472;52.092;9.820;2023-12-20T15:56:40;4.47;;;2.60;;
8871;SDS011;4472;52.092;9.820;2023-12-20T15:59:30;7.93;;;2.60;;
8871;SDS011;4472;52.092;9.820;2023-12-20T16:02:17;5.47;;;2.30;;
8871;SDS011;4472;52.092;9.820;2023-12-20T16:05:04;6.57;;;2.67;;
8871;SDS011;4472;52.092;9.820;2023-12-20T16:07:54;6.80;;;2.27;;
8871;SDS011;4472;52.092;9.820;2023-12-20T16:10:41;10.70;;;2.40;;
8871;SDS011;4472;52.092;9.820;2023-12-20T16:13:29;5.90;;;1.97;;
8871;SDS011;4472;52.092;9.820;2023-12-20T16:16:16;7.47;;;2.37;;
8871;SDS011;4472;52.092;9.820;2023-12-20T16:19:03;4.40;;;1.87;;
8871;SDS011;4472;52.092;9.820;2023-12-20T16:21:51;5.83;;;2.40;;
8871;SDS011;4472;52.092;9.820;2023-12-20T16:24:40;4.93;;;2.20;;
8871;SDS011;4472;52.092;9.820;2023-12-20T16:27:27;6.90;;;2.83;;
8871;SDS011;4472;52.092;9.820;2023-12-20T16:30:15;9.43;;;2.10;;
8871;SDS011;4472;52.092;9.820;2023-12-20T16:33:02;7.27;;;2.20;;
8871;SDS011;4472;52.092;9.820;2023-12-20T16:35:50;7.87;;;2.23;;
8871;SDS011;4472;52.092;9.820;2023-12-20T16:38:37;4.73;;;2.20;;
8871;SDS011;4472;52.092;9.820;2023-12-20T16:41:26;3.93;;;2.30;;
8871;SDS011;4472;52.092;9.820;2023-12-20T16:44:13;6.87;;;2.20;;
8871;SDS011;4472;52.092;9.820;2023-12-20T16:47:00;6.13;;;2.23;;
8871;SDS011;4472;52.092;9.820;2023-12-20T16:49:47;4.23;;;2.00;;
8871;SDS011;4472;52.092;9.820;2023-12-20T16:52:35;9.87;;;2.40;;
8871;SDS011;4472;52.092;9.820;2023-12-20T16:55:22;6.73;;;2.00;;
8871;SDS011;4472;52.092;9.820;2023-12-20T16:58:11;5.70;;;2.03;;
8871;SDS011;4472;52.092;9.820;2023-12-20T17:00:58;7.40;;;1.97;;
8871;SDS011;4472;52.092;9.820;2023-12-20T17:03:46;6.03;;;2.20;;
8871;SDS011;4472;52.092;9.820;2023-12-20T17:06:33;6.23;;;2.00;;
8871;SDS011;4472;52.092;9.820;2023-12-20T17:09:21;5.03;;;2.10;;
8871;SDS011;4472;52.092;9.820;2023-12-20T17:12:08;5.13;;;2.23;;
8871;SDS011;4472;52.092;9.820;2023-12-20T17:14:57;5.73;;;2.20;;
8871;SDS011;4472;52.092;9.820;2023-12-20T17:17:45;8.20;;;2.30;;
8871;SDS011;4472;52.092;9.820;2023-12-20T17:20:33;6.70;;;2.50;;